Aérodrome :
LOGIN :

S'inscrire | Disclaimer

   EN    FR    IT 

 










Légende :    VFR   VFR Marginal   IFR   IFR Intensif   IFR Très Intensif
Visi : 
Plafond : 
>= 8 km
>= 3000ft
5 à 8 km
1000 à 3000 ft
1500m à 5 km
500 à 1000 ft
800 à 1500m
200 à 500 ft
< 800m
< 200 ft
Symboles :   Orages  Brouillard  Fortes neiges  Fortes précipitations  Vent > 20 kt
SIGMETs :   Divers  Orages  Givrage  Turbulence  Onde Orograph.  Cendres Volcan.






- Altitude de l'aérodrome : 796 ft
- Code IATA : SYT


LFLN - Saint-Yan

DERNIER METAR :
  • 150200Z AUTO 20007KT 170V230 CAVOK 13/07 Q1007

METARs EXPIRÉS :
  • 150130Z AUTO 21008KT 180V240 CAVOK 14/07 Q1007
  • 150100Z AUTO 20010KT CAVOK 14/07 Q1007
  • 150030Z AUTO 20008KT 160V230 9999 OVC048 14/08 Q1007
  • 150000Z AUTO 20007KT 170V240 9999 OVC043 14/08 Q1008
  • 142330Z AUTO 20008KT 170V230 9999 OVC039 13/09 Q1008
  • 142300Z AUTO 20008KT 170V240 9999 OVC036 13/09 Q1008

TAF TAF LFLN
Valide du 14 à 18h jusqu'au 15 à 03h UTC


141700Z 1418/1503 18010KT 9999 SCT030 BKN045
TEMPO 1418/1503 -RA



MET'MAP, la Météo Aéronautique d'un coup d'oeil ! - Copyright ORBIFLY Décembre 2007 - Disclaimer

ORBIFLY MET'MAP TEAM :

Programmation & Développement : Alexandra Zaïnal
Sur une idée originale de : Baudouin d'Aumeries
Assistance à la programmation : Marc-Olivier Méhu
Soutien technique & logistique : Manuel Goepfert

Contact : metmap@orbifly.com




SOURCES & CREDITS :

   NOAA